createdAt,value
2019-04-11T00:00:31.300Z,11.38
2019-04-11T00:03:33.487Z,11.38
2019-04-11T00:06:35.908Z,11.31
2019-04-11T00:09:37.399Z,11.31
2019-04-11T00:12:38.892Z,11.31
2019-04-11T00:15:40.473Z,11.25
2019-04-11T00:18:43.004Z,11.25
2019-04-11T00:21:44.712Z,11.25
2019-04-11T00:24:47.136Z,11.19
2019-04-11T00:27:48.972Z,11.19
2019-04-11T00:30:50.498Z,11.19
2019-04-11T00:33:52.001Z,11.12
2019-04-11T00:36:53.439Z,11.12
2019-04-11T00:39:54.817Z,11.12
2019-04-11T00:42:56.289Z,11.12
2019-04-11T00:45:58.190Z,11.06
2019-04-11T00:49:00.595Z,11.06
2019-04-11T00:52:02.690Z,11.06
2019-04-11T00:55:05.055Z,11.00
2019-04-11T00:58:07.504Z,11.00
2019-04-11T01:01:09.342Z,11.00
2019-04-11T01:04:11.678Z,11.00
2019-04-11T01:07:13.122Z,10.94
2019-04-11T01:10:14.479Z,10.94
2019-04-11T01:13:17.601Z,10.94
2019-04-11T01:16:28.337Z,10.88
2019-04-11T01:19:30.888Z,10.88
2019-04-11T01:22:32.400Z,10.88
2019-04-11T01:25:34.723Z,10.81
2019-04-11T01:28:36.530Z,10.81
2019-04-11T01:31:39.703Z,10.81
2019-04-11T01:34:42.500Z,10.75
2019-04-11T01:37:44.042Z,10.75
2019-04-11T01:40:45.633Z,10.75
2019-04-11T01:43:55.349Z,10.69
2019-04-11T01:46:50.694Z,10.69
2019-04-11T01:49:52.492Z,10.69
2019-04-11T01:52:54.916Z,10.63
2019-04-11T01:55:56.873Z,10.63
2019-04-11T01:58:59.324Z,10.56
2019-04-11T02:02:32.695Z,10.56
2019-04-11T02:05:35.057Z,10.56
2019-04-11T02:08:37.569Z,10.50
2019-04-11T02:11:39.474Z,10.50
2019-04-11T02:14:41.747Z,10.44
2019-04-11T02:17:43.284Z,10.44
2019-04-11T02:20:45.200Z,10.44
2019-04-11T02:24:11.943Z,10.38
2019-04-11T02:27:21.107Z,10.38
2019-04-11T02:30:22.980Z,10.31
2019-04-11T02:33:26.428Z,10.31
2019-04-11T02:36:29.515Z,10.31
2019-04-11T02:39:32.899Z,10.25
2019-04-11T02:42:35.101Z,10.25
2019-04-11T02:45:50.817Z,10.19
2019-04-11T02:48:40.742Z,10.19
2019-04-11T02:51:43.071Z,10.13
2019-04-11T02:54:45.198Z,10.13
2019-04-11T02:57:48.315Z,10.06
2019-04-11T03:00:51.070Z,10.06
2019-04-11T03:03:53.935Z,10.06
2019-04-11T03:06:57.431Z,10.00
2019-04-11T03:10:00.288Z,10.00
2019-04-11T03:13:02.925Z,9.94
2019-04-11T03:16:19.526Z,9.94
2019-04-11T03:19:22.501Z,9.94
2019-04-11T03:22:10.577Z,9.88
2019-04-11T03:25:11.988Z,9.81
2019-04-11T03:28:19.293Z,9.81
2019-04-11T03:37:49.948Z,9.75
2019-04-11T03:40:47.069Z,9.69
2019-04-11T03:43:39.545Z,9.69
2019-04-11T03:46:48.176Z,9.63
2019-04-11T03:49:44.992Z,9.63
2019-04-11T03:52:38.959Z,9.56
2019-04-11T03:55:40.947Z,9.56
2019-04-11T03:58:43.769Z,9.50
2019-04-11T04:01:46.742Z,9.50
2019-04-11T04:04:49.338Z,9.44
2019-04-11T04:07:52.458Z,9.44
2019-04-11T04:11:27.079Z,9.38
2019-04-11T04:14:42.871Z,9.38
2019-04-11T04:17:52.784Z,9.31
2019-04-11T04:21:22.741Z,9.31
2019-04-11T04:24:35.455Z,9.25
2019-04-11T04:27:35.391Z,9.25
2019-04-11T04:30:38.452Z,9.19
2019-04-11T04:33:40.408Z,9.13
2019-04-11T04:36:42.344Z,9.13
2019-04-11T04:39:45.605Z,9.06
2019-04-11T04:42:52.080Z,9.06
2019-04-11T04:46:08.769Z,9.00
2019-04-11T04:48:55.794Z,9.00
2019-04-11T04:51:57.493Z,9.00
2019-04-11T04:54:59.423Z,8.94
2019-04-11T04:58:02.180Z,8.94
2019-04-11T05:01:06.893Z,8.94
2019-04-11T05:04:09.198Z,8.94
2019-04-11T05:07:11.713Z,8.94
2019-04-11T05:10:13.513Z,8.88
2019-04-11T05:13:17.014Z,8.88
2019-04-11T05:16:18.215Z,8.88
2019-04-11T05:19:19.543Z,8.88
2019-04-11T05:22:20.917Z,8.88
2019-04-11T05:25:22.367Z,8.88
2019-04-11T05:28:23.676Z,8.88
2019-04-11T05:31:25.011Z,8.88
2019-04-11T05:34:26.358Z,8.88
2019-04-11T05:37:27.720Z,8.88
2019-04-11T05:40:32.502Z,8.94
2019-04-11T05:43:37.241Z,8.94
2019-04-11T05:46:49.158Z,8.94
2019-04-11T05:49:59.091Z,9.00
2019-04-11T05:53:03.797Z,9.00
2019-04-11T05:56:05.629Z,9.06
2019-04-11T05:59:20.149Z,9.06
2019-04-11T06:02:43.689Z,9.13
2019-04-11T06:06:13.398Z,9.13
2019-04-11T06:09:20.889Z,9.13
2019-04-11T06:12:59.423Z,9.19
2019-04-11T06:16:02.831Z,9.19
2019-04-11T06:19:22.774Z,9.25
2019-04-11T06:22:25.631Z,9.25
2019-04-11T06:25:53.288Z,9.31
2019-04-11T06:29:01.315Z,9.31
2019-04-11T06:32:21.653Z,9.44
2019-04-11T06:35:30.323Z,9.50
2019-04-11T06:38:49.483Z,9.50
2019-04-11T06:42:24.465Z,9.63
2019-04-11T06:45:42.578Z,9.69
2019-04-11T06:49:06.551Z,9.75
2019-04-11T06:52:08.680Z,9.81
2019-04-11T06:55:47.450Z,10.00
2019-04-11T06:58:59.618Z,10.06
2019-04-11T07:02:11.574Z,10.19
2019-04-11T07:05:10.667Z,10.25
2019-04-11T07:08:12.193Z,10.31
2019-04-11T07:11:14.330Z,10.44
2019-04-11T07:14:25.556Z,10.50
2019-04-11T07:17:44.500Z,10.63
2019-04-11T07:20:58.211Z,10.75
2019-04-11T07:24:18.160Z,10.94
2019-04-11T07:27:20.182Z,11.00
2019-04-11T07:30:41.666Z,11.12
2019-04-11T07:34:02.522Z,11.25
2019-04-11T07:37:21.535Z,11.31
2019-04-11T07:40:58.761Z,11.44
2019-04-11T07:44:00.767Z,11.56
2019-04-11T07:47:17.126Z,11.63
2019-04-11T07:50:16.785Z,11.69
2019-04-11T07:53:19.719Z,11.81
2019-04-11T07:56:35.297Z,11.88
2019-04-11T08:00:08.170Z,12.00
2019-04-11T08:03:30.436Z,12.13
2019-04-11T08:06:50.053Z,12.25
2019-04-11T08:09:57.503Z,12.31
2019-04-11T08:13:01.688Z,12.37
2019-04-11T08:16:40.448Z,12.50
2019-04-11T08:19:59.626Z,12.63
2019-04-11T08:23:03.698Z,12.75
2019-04-11T08:26:28.222Z,12.88
2019-04-11T08:29:30.542Z,13.00
2019-04-11T08:32:49.881Z,13.13
2019-04-11T08:36:10.309Z,13.25
2019-04-11T08:39:17.258Z,13.38
2019-04-11T08:42:50.760Z,13.56
2019-04-11T08:45:56.665Z,13.69
2019-04-11T08:49:01.455Z,13.81
2019-04-11T08:52:07.606Z,14.00
2019-04-11T08:55:29.306Z,14.13
2019-04-11T08:58:43.232Z,14.38
2019-04-11T09:01:46.021Z,14.50
2019-04-11T09:05:14.987Z,14.69
2019-04-11T09:08:38.444Z,14.87
2019-04-11T09:11:42.405Z,15.06
2019-04-11T09:15:02.811Z,15.31
2019-04-11T09:18:10.754Z,15.44
2019-04-11T09:21:38.912Z,15.69
2019-04-11T09:24:56.845Z,15.94
2019-04-11T09:28:06.238Z,16.12
2019-04-11T09:31:43.468Z,16.37
2019-04-11T09:34:52.812Z,16.62
2019-04-11T09:37:54.345Z,16.94
2019-04-11T09:41:06.661Z,17.19
2019-04-11T09:44:09.158Z,17.37
2019-04-11T09:47:26.237Z,17.62
2019-04-11T09:50:46.968Z,17.81
2019-04-11T09:53:52.994Z,18.06
2019-04-11T09:57:12.139Z,18.25
2019-04-11T10:00:32.828Z,18.50
2019-04-11T10:03:34.629Z,18.75
2019-04-11T10:07:01.271Z,19.00
2019-04-11T10:10:30.548Z,19.12
2019-04-11T10:13:55.302Z,19.44
2019-04-11T10:17:14.884Z,19.69
2019-04-11T10:20:18.355Z,19.94
2019-04-11T10:23:42.983Z,20.12
2019-04-11T10:26:49.942Z,20.44
2019-04-11T10:30:13.112Z,20.75
2019-04-11T10:33:39.502Z,21.00
2019-04-11T10:36:59.730Z,21.37
2019-04-11T10:40:26.121Z,21.62
2019-04-11T10:43:28.592Z,21.94
2019-04-11T10:46:49.518Z,22.25
2019-04-11T10:50:19.569Z,22.50
2019-04-11T10:53:23.204Z,22.69
2019-04-11T10:56:47.555Z,22.87
2019-04-11T10:59:51.077Z,23.12
2019-04-11T11:03:20.444Z,23.31
2019-04-11T11:06:24.178Z,23.56
2019-04-11T11:09:32.412Z,23.81
2019-04-11T11:12:51.774Z,24.00
2019-04-11T11:15:56.159Z,23.81
2019-04-11T11:19:44.108Z,22.56
2019-04-11T11:22:41.566Z,22.13
2019-04-11T11:25:51.987Z,22.06
2019-04-11T11:29:15.138Z,22.31
2019-04-11T11:32:33.598Z,22.31
2019-04-11T11:35:46.073Z,22.37
2019-04-11T11:38:58.432Z,22.75
2019-04-11T11:42:17.911Z,22.69
2019-04-11T11:45:48.154Z,22.75
2019-04-11T11:49:05.936Z,23.38
2019-04-11T11:52:35.030Z,23.31
2019-04-11T11:55:38.858Z,23.69
2019-04-11T11:59:09.112Z,24.12
2019-04-11T12:02:17.490Z,25.00
2019-04-11T12:05:26.410Z,26.81
2019-04-11T12:08:36.946Z,27.81
2019-04-11T12:11:40.395Z,28.44
2019-04-11T12:15:01.460Z,29.06
2019-04-11T12:18:16.942Z,28.62
2019-04-11T12:21:25.967Z,29.44
2019-04-11T12:24:45.611Z,29.63
2019-04-11T12:27:56.360Z,29.56
2019-04-11T12:31:03.883Z,29.56
2019-04-11T12:34:22.203Z,29.81
2019-04-11T12:37:29.240Z,30.00
2019-04-11T12:40:48.517Z,29.81
2019-04-11T12:44:07.601Z,30.25
2019-04-11T12:47:26.219Z,30.69
2019-04-11T12:50:45.422Z,31.50
2019-04-11T12:53:48.214Z,31.44
2019-04-11T12:57:21.521Z,31.87
2019-04-11T13:00:44.624Z,31.25
2019-04-11T13:04:03.832Z,31.56
2019-04-11T13:07:33.309Z,31.94
2019-04-11T13:10:37.332Z,32.19
2019-04-11T13:13:48.324Z,32.38
2019-04-11T13:16:52.523Z,32.63
2019-04-11T13:20:11.616Z,32.75
2019-04-11T13:23:30.845Z,32.81
2019-04-11T13:26:50.073Z,33.00
2019-04-11T13:30:10.581Z,32.56
2019-04-11T13:33:26.917Z,33.00
2019-04-11T13:36:51.076Z,32.69
2019-04-11T13:40:00.428Z,31.50
2019-04-11T13:43:30.011Z,32.44
2019-04-11T13:46:50.366Z,33.19
2019-04-11T13:49:54.362Z,33.00
2019-04-11T13:53:13.605Z,32.56
2019-04-11T13:56:15.037Z,32.44
2019-04-11T13:59:50.524Z,32.31
2019-04-11T14:03:09.584Z,32.88
2019-04-11T14:06:37.921Z,32.88
2019-04-11T14:09:44.342Z,33.19
2019-04-11T14:12:45.843Z,33.50
2019-04-11T14:15:49.247Z,33.31
2019-04-11T14:19:07.237Z,32.94
2019-04-11T14:22:13.540Z,33.13
2019-04-11T14:25:24.883Z,33.19
2019-04-11T14:28:29.313Z,32.88
2019-04-11T14:31:53.903Z,32.94
2019-04-11T14:35:23.452Z,33.19
2019-04-11T14:38:25.285Z,33.25
2019-04-11T14:41:45.635Z,32.75
2019-04-11T14:44:47.317Z,33.13
2019-04-11T14:48:07.960Z,33.25
2019-04-11T14:51:27.383Z,33.06
2019-04-11T14:54:31.984Z,31.62
2019-04-11T14:57:55.166Z,32.38
2019-04-11T15:00:56.584Z,31.75
2019-04-11T15:04:28.843Z,31.94
2019-04-11T15:07:31.636Z,31.75
2019-04-11T15:10:48.296Z,32.25
2019-04-11T15:13:52.624Z,32.13
2019-04-11T15:17:24.327Z,32.38
2019-04-11T15:21:02.459Z,31.31
2019-04-11T15:24:07.423Z,31.12
2019-04-11T15:27:32.434Z,29.00
2019-04-11T15:30:35.380Z,27.69
2019-04-11T15:34:13.681Z,28.50
2019-04-11T15:37:49.003Z,28.19
2019-04-11T15:40:53.846Z,26.50
2019-04-11T15:44:13.907Z,27.00
2019-04-11T15:47:19.063Z,29.63
2019-04-11T15:50:39.763Z,28.81
2019-04-11T15:53:59.275Z,27.37
2019-04-11T15:57:12.705Z,28.25
2019-04-11T16:00:33.478Z,29.06
2019-04-11T16:03:35.896Z,28.31
2019-04-11T16:06:48.807Z,25.06
2019-04-11T16:09:50.218Z,26.19
2019-04-11T16:12:58.171Z,26.31
2019-04-11T16:16:06.814Z,27.37
2019-04-11T16:19:22.353Z,28.12
2019-04-11T16:22:45.553Z,25.88
2019-04-11T16:25:52.129Z,26.62
2019-04-11T16:29:16.211Z,27.87
2019-04-11T16:32:18.748Z,28.94
2019-04-11T16:35:33.170Z,29.56
2019-04-11T16:38:41.445Z,29.19
2019-04-11T16:42:06.362Z,29.56
2019-04-11T16:45:40.315Z,29.56
2019-04-11T16:48:41.795Z,29.50
2019-04-11T16:51:43.195Z,29.50
2019-04-11T16:54:44.603Z,29.25
2019-04-11T16:57:46.000Z,28.75
2019-04-11T17:00:52.082Z,28.44
2019-04-11T17:03:54.902Z,28.00
2019-04-11T17:07:07.890Z,27.44
2019-04-11T17:10:09.926Z,26.87
2019-04-11T17:13:11.405Z,26.62
2019-04-11T17:16:14.921Z,26.50
2019-04-11T17:19:16.316Z,26.19
2019-04-11T17:22:18.941Z,26.06
2019-04-11T17:25:20.957Z,25.69
2019-04-11T17:28:23.190Z,25.37
2019-04-11T17:31:25.925Z,25.12
2019-04-11T17:34:32.100Z,24.81
2019-04-11T17:37:33.192Z,24.56
2019-04-11T17:40:39.407Z,24.37
2019-04-11T17:43:42.088Z,24.25
2019-04-11T17:46:42.624Z,24.19
2019-04-11T17:49:44.141Z,23.87
2019-04-11T17:52:45.559Z,23.69
2019-04-11T17:55:47.007Z,23.44
2019-04-11T17:58:48.422Z,23.25
2019-04-11T18:01:49.817Z,23.56
2019-04-11T18:04:51.229Z,23.81
2019-04-11T18:07:52.620Z,23.81
2019-04-11T18:10:56.025Z,23.69
2019-04-11T18:14:00.762Z,23.56
2019-04-11T18:17:03.870Z,23.50
2019-04-11T18:20:04.562Z,23.31
2019-04-11T18:23:06.787Z,23.19
2019-04-11T18:26:08.364Z,23.06
2019-04-11T18:29:09.795Z,22.94
2019-04-11T18:32:11.270Z,22.81
2019-04-11T18:35:12.826Z,22.69
2019-04-11T18:38:14.249Z,22.56
2019-04-11T18:41:15.628Z,22.37
2019-04-11T18:44:18.761Z,22.19
2019-04-11T18:47:20.485Z,22.06
2019-04-11T18:50:22.948Z,22.00
2019-04-11T18:53:24.982Z,21.87
2019-04-11T18:56:26.385Z,21.75
2019-04-11T18:59:27.782Z,21.62
2019-04-11T19:02:29.219Z,21.50
2019-04-11T19:05:30.729Z,21.37
2019-04-11T19:08:32.241Z,21.31
2019-04-11T19:11:33.654Z,21.19
2019-04-11T19:14:35.065Z,21.12
2019-04-11T19:17:36.511Z,21.00
2019-04-11T19:20:37.900Z,21.00
2019-04-11T19:23:39.776Z,20.94
2019-04-11T19:26:41.215Z,20.81
2019-04-11T19:29:42.635Z,20.75
2019-04-11T19:32:44.085Z,20.69
2019-04-11T19:35:45.524Z,20.62
2019-04-11T19:38:46.939Z,20.50
2019-04-11T19:41:48.645Z,20.44
2019-04-11T19:44:50.422Z,20.37
2019-04-11T19:47:52.704Z,20.31
2019-04-11T19:50:54.364Z,20.25
2019-04-11T19:53:55.772Z,20.19
2019-04-11T19:57:05.459Z,20.06
2019-04-11T20:00:08.408Z,20.00
2019-04-11T20:03:09.904Z,19.94
2019-04-11T20:06:13.260Z,19.94
2019-04-11T20:09:14.561Z,19.87
2019-04-11T20:12:15.999Z,19.75
2019-04-11T20:15:17.381Z,19.69
2019-04-11T20:18:22.141Z,19.62
2019-04-11T20:21:21.989Z,19.56
2019-04-11T20:24:23.448Z,19.44
2019-04-11T20:27:24.848Z,19.37
2019-04-11T20:30:26.287Z,19.31
2019-04-11T20:33:27.837Z,19.19
2019-04-11T20:36:33.619Z,19.12
2019-04-11T20:39:32.446Z,19.06
2019-04-11T20:42:33.854Z,19.00
2019-04-11T20:45:37.334Z,18.87
2019-04-11T20:48:38.805Z,18.81
2019-04-11T20:51:40.241Z,18.75
2019-04-11T20:54:41.684Z,18.62
2019-04-11T20:57:43.146Z,18.56
2019-04-11T21:00:50.717Z,18.50
2019-04-11T21:03:47.686Z,18.44
2019-04-11T21:06:49.078Z,18.37
2019-04-11T21:09:50.514Z,18.25
2019-04-11T21:12:51.937Z,18.19
2019-04-11T21:15:53.354Z,18.12
2019-04-11T21:18:55.503Z,18.06
2019-04-11T21:21:57.015Z,18.00
2019-04-11T21:24:59.476Z,17.87
2019-04-11T21:28:01.534Z,17.81
2019-04-11T21:31:02.992Z,17.75
2019-04-11T21:34:04.412Z,17.62
2019-04-11T21:37:05.959Z,17.62
2019-04-11T21:40:08.096Z,17.50
2019-04-11T21:43:09.582Z,17.44
2019-04-11T21:46:10.999Z,17.37
2019-04-11T21:49:15.268Z,17.31
2019-04-11T21:52:16.694Z,17.19
2019-04-11T21:55:18.141Z,17.12
2019-04-11T21:58:20.390Z,17.06
2019-04-11T22:01:24.980Z,17.00
2019-04-11T22:04:30.836Z,16.94
2019-04-11T22:07:30.999Z,16.87
2019-04-11T22:10:33.050Z,16.81
2019-04-11T22:13:34.547Z,16.69
2019-04-11T22:16:35.981Z,16.62
2019-04-11T22:19:37.365Z,16.56
2019-04-11T22:22:38.773Z,16.50
2019-04-11T22:25:40.123Z,16.44
2019-04-11T22:28:41.560Z,16.37
2019-04-11T22:31:42.985Z,16.31
2019-04-11T22:34:46.014Z,16.25
2019-04-11T22:37:48.513Z,16.12
2019-04-11T22:40:49.946Z,16.06
2019-04-11T22:43:51.353Z,16.00
2019-04-11T22:46:52.747Z,16.00
2019-04-11T22:49:54.157Z,15.88
2019-04-11T22:52:55.588Z,15.81
2019-04-11T22:55:56.973Z,15.75
2019-04-11T22:58:58.456Z,15.69
2019-04-11T23:02:10.040Z,15.63
2019-04-11T23:05:11.448Z,15.56
2019-04-11T23:08:12.842Z,15.50
2019-04-11T23:11:15.107Z,15.44
2019-04-11T23:14:17.099Z,15.38
2019-04-11T23:17:18.552Z,15.31
2019-04-11T23:20:19.964Z,15.25
2019-04-11T23:23:21.356Z,15.19
2019-04-11T23:26:22.805Z,15.13
2019-04-11T23:29:24.210Z,15.06
2019-04-11T23:32:25.599Z,15.00
2019-04-11T23:35:27.056Z,14.94
2019-04-11T23:38:28.448Z,14.87
2019-04-11T23:41:29.869Z,14.81
2019-04-11T23:44:31.289Z,14.75
2019-04-11T23:47:32.707Z,14.69
2019-04-11T23:50:34.099Z,14.63
2019-04-11T23:53:36.578Z,14.56
2019-04-11T23:56:37.997Z,14.50
2019-04-11T23:59:39.438Z,14.44
